createdAt,value
2022-11-01T00:01:40.549Z,6.74
2022-11-01T00:04:08.953Z,6.73
2022-11-01T00:06:37.287Z,6.76
2022-11-01T00:09:06.203Z,6.77
2022-11-01T00:11:34.593Z,6.79
2022-11-01T00:14:04.538Z,6.83
2022-11-01T00:16:32.906Z,6.77
2022-11-01T00:19:00.980Z,6.75
2022-11-01T00:21:29.016Z,6.71
2022-11-01T00:23:57.113Z,6.76
2022-11-01T00:26:26.979Z,6.83
2022-11-01T00:28:55.432Z,6.80
2022-11-01T00:31:25.164Z,6.61
2022-11-01T00:33:53.339Z,6.64
2022-11-01T00:36:21.493Z,6.71
2022-11-01T00:38:51.772Z,6.65
2022-11-01T00:41:21.183Z,6.70
2022-11-01T00:43:49.428Z,6.73
2022-11-01T00:46:17.863Z,6.57
2022-11-01T00:48:47.373Z,6.56
2022-11-01T00:51:15.532Z,6.54
2022-11-01T00:53:43.565Z,6.62
2022-11-01T00:56:11.716Z,6.64
2022-11-01T00:58:39.774Z,6.58
2022-11-01T01:01:07.924Z,6.61
2022-11-01T01:03:36.535Z,6.68
2022-11-01T01:09:54.381Z,6.63
2022-11-01T01:12:22.666Z,6.62
2022-11-01T01:14:50.956Z,6.62
2022-11-01T01:17:19.477Z,6.67
2022-11-01T01:19:47.688Z,6.60
2022-11-01T01:22:15.952Z,6.53
2022-11-01T01:24:45.940Z,6.38
2022-11-01T01:27:16.566Z,6.41
2022-11-01T01:29:45.556Z,6.34
2022-11-01T01:32:14.706Z,6.29
2022-11-01T01:34:43.056Z,6.30
2022-11-01T01:37:12.058Z,6.35
2022-11-01T01:39:40.286Z,6.40
2022-11-01T01:42:19.098Z,6.32
2022-11-01T01:45:43.907Z,6.41
2022-11-01T01:48:16.681Z,6.42
2022-11-01T01:50:49.279Z,6.42
2022-11-01T01:53:21.318Z,6.45
2022-11-01T01:55:54.149Z,6.40
2022-11-01T01:58:25.222Z,6.42
2022-11-01T02:00:54.949Z,6.41
2022-11-01T02:03:24.108Z,6.42
2022-11-01T02:05:54.779Z,6.35
2022-11-01T02:08:28.051Z,6.37
2022-11-01T02:10:58.138Z,6.37
2022-11-01T02:13:27.751Z,6.34
2022-11-01T02:16:06.169Z,6.36
2022-11-01T02:18:41.437Z,6.36
2022-11-01T02:21:41.838Z,6.43
2022-11-01T02:24:25.291Z,6.43
2022-11-01T02:27:29.148Z,6.44
2022-11-01T02:30:24.051Z,6.47
2022-11-01T02:33:04.090Z,6.45
2022-11-01T02:35:41.879Z,6.48
2022-11-01T02:38:12.922Z,6.55
2022-11-01T02:40:45.012Z,6.52
2022-11-01T02:43:18.300Z,6.56
2022-11-01T02:45:49.539Z,6.53
2022-11-01T02:48:21.309Z,6.61
2022-11-01T02:50:52.658Z,6.57
2022-11-01T02:53:20.898Z,6.61
2022-11-01T02:55:49.051Z,6.61
2022-11-01T02:58:22.331Z,6.57
2022-11-01T03:00:50.448Z,6.72
2022-11-01T03:03:22.438Z,6.70
2022-11-01T03:05:59.119Z,6.74
2022-11-01T03:08:29.428Z,6.75
2022-11-01T03:11:06.122Z,6.74
2022-11-01T03:13:55.121Z,6.70
2022-11-01T03:16:30.609Z,6.72
2022-11-01T03:19:27.725Z,6.77
2022-11-01T03:22:01.581Z,6.76
2022-11-01T03:24:30.777Z,6.83
2022-11-01T03:27:04.168Z,6.90
2022-11-01T03:29:33.098Z,6.87
2022-11-01T03:32:03.098Z,6.95
2022-11-01T03:34:34.708Z,6.93
2022-11-01T03:37:06.268Z,6.97
2022-11-01T03:39:37.402Z,6.96
2022-11-01T03:42:07.978Z,6.98
2022-11-01T03:44:39.737Z,6.95
2022-11-01T03:47:07.949Z,7.04
2022-11-01T03:49:37.621Z,7.09
2022-11-01T03:52:05.999Z,7.13
2022-11-01T03:54:34.081Z,7.13
2022-11-01T03:57:02.779Z,7.05
2022-11-01T03:59:30.930Z,7.15
2022-11-01T04:01:59.181Z,7.10
2022-11-01T04:04:27.410Z,7.09
2022-11-01T04:06:56.978Z,7.07
2022-11-01T04:09:25.077Z,7.04
2022-11-01T04:11:53.627Z,7.05
2022-11-01T04:14:38.990Z,7.09
2022-11-01T04:17:24.677Z,7.07
2022-11-01T04:20:10.278Z,7.08
2022-11-01T04:22:40.080Z,7.14
2022-11-01T04:25:08.649Z,7.08
2022-11-01T04:27:36.808Z,7.10
2022-11-01T04:30:05.418Z,7.17
2022-11-01T04:32:33.531Z,7.20
2022-11-01T04:35:01.785Z,7.22
2022-11-01T04:37:31.710Z,7.23
2022-11-01T04:40:01.391Z,7.25
2022-11-01T04:42:29.461Z,7.26
2022-11-01T04:44:57.628Z,7.28
2022-11-01T04:47:25.716Z,7.29
2022-11-01T04:49:53.875Z,7.39
2022-11-01T04:52:22.174Z,7.41
2022-11-01T04:54:50.477Z,7.39
2022-11-01T04:57:26.280Z,7.45
2022-11-01T04:59:55.158Z,7.43
2022-11-01T05:02:24.801Z,7.41
2022-11-01T05:04:52.938Z,7.39
2022-11-01T05:07:21.088Z,7.39
2022-11-01T05:09:49.219Z,7.37
2022-11-01T05:12:19.019Z,7.28
2022-11-01T05:14:51.850Z,7.34
2022-11-01T05:17:22.938Z,7.33
2022-11-01T05:19:51.741Z,7.25
2022-11-01T05:22:19.878Z,7.28
2022-11-01T05:24:48.020Z,7.26
2022-11-01T05:27:16.258Z,7.27
2022-11-01T05:29:44.377Z,7.23
2022-11-01T05:32:13.965Z,7.21
2022-11-01T05:34:42.201Z,7.22
2022-11-01T05:37:10.977Z,7.23
2022-11-01T05:39:39.202Z,7.25
2022-11-01T05:42:07.502Z,7.24
2022-11-01T05:44:35.732Z,7.20
2022-11-01T05:47:04.856Z,7.22
2022-11-01T05:49:34.571Z,7.22
2022-11-01T05:52:02.707Z,7.29
2022-11-01T05:54:31.017Z,7.35
2022-11-01T05:56:59.196Z,7.37
2022-11-01T05:59:27.360Z,7.38
2022-11-01T06:01:55.559Z,7.42
2022-11-01T06:04:23.938Z,7.41
2022-11-01T06:06:53.503Z,7.36
2022-11-01T06:09:21.567Z,7.38
2022-11-01T06:11:49.871Z,7.37
2022-11-01T06:14:17.970Z,7.45
2022-11-01T06:16:46.171Z,7.46
2022-11-01T06:19:14.462Z,7.49
2022-11-01T06:21:42.892Z,7.48
2022-11-01T06:24:13.427Z,7.39
2022-11-01T06:26:41.596Z,7.45
2022-11-01T06:29:10.346Z,7.45
2022-11-01T06:31:38.548Z,7.39
2022-11-01T06:34:06.808Z,7.50
2022-11-01T06:36:35.097Z,7.55
2022-11-01T06:39:03.177Z,7.53
2022-11-01T06:41:32.782Z,7.51
2022-11-01T06:44:00.920Z,7.55
2022-11-01T06:46:29.075Z,7.66
2022-11-01T06:48:57.190Z,7.70
2022-11-01T06:51:25.320Z,7.81
2022-11-01T06:53:53.400Z,7.81
2022-11-01T06:56:21.809Z,7.84
2022-11-01T06:58:51.729Z,7.87
2022-11-01T07:01:22.321Z,7.94
2022-11-01T07:03:52.231Z,7.90
2022-11-01T07:06:20.731Z,7.87
2022-11-01T07:08:48.935Z,7.94
2022-11-01T07:11:20.103Z,7.94
2022-11-01T07:13:48.592Z,7.91
2022-11-01T07:16:18.167Z,7.94
2022-11-01T07:18:46.408Z,8.09
2022-11-01T07:21:14.590Z,8.04
2022-11-01T07:23:42.817Z,8.07
2022-11-01T07:26:11.092Z,8.05
2022-11-01T07:28:39.827Z,8.16
2022-11-01T07:31:08.326Z,8.20
2022-11-01T07:33:37.862Z,8.29
2022-11-01T07:36:07.078Z,8.42
2022-11-01T07:38:35.208Z,8.44
2022-11-01T07:41:04.833Z,8.56
2022-11-01T07:43:32.998Z,8.53
2022-11-01T07:46:04.066Z,8.54
2022-11-01T07:48:36.987Z,8.61
2022-11-01T07:51:07.785Z,8.74
2022-11-01T07:53:35.937Z,8.69
2022-11-01T07:56:04.558Z,8.78
2022-11-01T07:58:32.719Z,8.80
2022-11-01T08:01:02.075Z,8.79
2022-11-01T08:03:31.010Z,8.78
2022-11-01T08:05:59.111Z,8.85
2022-11-01T08:08:28.899Z,8.75
2022-11-01T08:10:57.208Z,8.67
2022-11-01T08:13:26.386Z,8.66
2022-11-01T08:15:55.017Z,8.68
2022-11-01T08:18:24.630Z,8.61
2022-11-01T08:20:52.971Z,8.65
2022-11-01T08:23:21.741Z,8.57
2022-11-01T08:25:51.398Z,8.67
2022-11-01T08:28:21.447Z,8.68
2022-11-01T08:30:50.579Z,8.60
2022-11-01T08:33:19.116Z,8.60
2022-11-01T08:35:50.472Z,8.64
2022-11-01T08:38:19.368Z,8.69
2022-11-01T08:40:48.129Z,8.69
2022-11-01T08:43:17.969Z,8.57
2022-11-01T08:45:46.280Z,8.65
2022-11-01T08:48:14.952Z,8.70
2022-11-01T08:50:43.432Z,8.68
2022-11-01T08:53:13.581Z,8.72
2022-11-01T08:55:41.833Z,8.70
2022-11-01T08:58:10.853Z,8.86
2022-11-01T09:00:40.487Z,9.16
2022-11-01T09:03:08.929Z,9.41
2022-11-01T09:05:37.166Z,9.58
2022-11-01T09:08:08.437Z,9.51
2022-11-01T09:10:36.948Z,9.44
2022-11-01T09:13:07.262Z,9.62
2022-11-01T09:15:35.818Z,9.62
2022-11-01T09:18:08.662Z,9.62
2022-11-01T09:20:36.892Z,9.64
2022-11-01T09:23:05.541Z,9.79
2022-11-01T09:25:33.982Z,9.63
2022-11-01T09:28:02.232Z,9.62
2022-11-01T09:30:30.466Z,9.73
2022-11-01T09:32:58.740Z,9.63
2022-11-01T09:35:30.007Z,9.54
2022-11-01T09:38:02.173Z,9.68
2022-11-01T09:40:33.090Z,9.69
2022-11-01T09:43:02.129Z,9.76
2022-11-01T09:45:33.069Z,10.04
2022-11-01T09:48:03.438Z,10.07
2022-11-01T09:50:35.091Z,10.16
2022-11-01T09:53:04.948Z,10.03
2022-11-01T09:55:41.957Z,10.38
2022-11-01T09:58:19.638Z,10.74
2022-11-01T10:00:53.721Z,11.02
2022-11-01T10:03:40.593Z,10.97
2022-11-01T10:06:16.770Z,11.15
2022-11-01T10:08:55.270Z,11.21
2022-11-01T10:11:46.769Z,11.25
2022-11-01T10:14:24.060Z,11.41
2022-11-01T10:16:59.960Z,11.25
2022-11-01T10:19:33.316Z,11.40
2022-11-01T10:22:06.785Z,11.55
2022-11-01T10:24:39.846Z,11.61
2022-11-01T10:27:14.471Z,11.53
2022-11-01T10:29:46.011Z,11.41
2022-11-01T10:32:25.782Z,11.56
2022-11-01T10:34:55.690Z,11.49
2022-11-01T10:37:30.359Z,11.64
2022-11-01T10:40:06.351Z,11.64
2022-11-01T10:42:36.428Z,11.80
2022-11-01T10:45:08.970Z,11.77
2022-11-01T10:47:37.168Z,11.76
2022-11-01T10:50:10.979Z,11.72
2022-11-01T10:52:48.102Z,11.92
2022-11-01T10:55:20.217Z,12.10
2022-11-01T10:57:51.906Z,12.20
2022-11-01T11:00:22.578Z,12.25
2022-11-01T11:02:53.196Z,11.94
2022-11-01T11:05:22.557Z,11.94
2022-11-01T11:07:52.081Z,11.96
2022-11-01T11:10:24.237Z,11.87
2022-11-01T11:12:55.447Z,11.52
2022-11-01T11:15:33.027Z,11.37
2022-11-01T11:18:03.777Z,11.02
2022-11-01T11:20:33.259Z,11.05
2022-11-01T11:23:05.203Z,10.95
2022-11-01T11:25:37.253Z,11.13
2022-11-01T11:28:06.169Z,11.12
2022-11-01T11:30:35.978Z,11.12
2022-11-01T11:33:04.638Z,11.11
2022-11-01T11:35:33.800Z,11.31
2022-11-01T11:38:06.482Z,11.12
2022-11-01T11:40:44.279Z,11.06
2022-11-01T11:43:24.449Z,11.07
2022-11-01T11:46:14.888Z,10.93
2022-11-01T11:48:50.959Z,10.89
2022-11-01T11:51:20.401Z,10.95
2022-11-01T11:54:11.281Z,11.11
2022-11-01T11:56:39.375Z,11.33
2022-11-01T11:59:12.739Z,11.36
2022-11-01T12:01:41.028Z,11.44
2022-11-01T12:04:10.778Z,11.74
2022-11-01T12:06:40.268Z,11.72
2022-11-01T12:09:34.968Z,11.79
2022-11-01T12:12:08.102Z,11.75
2022-11-01T12:14:38.929Z,11.90
2022-11-01T12:17:25.582Z,11.72
2022-11-01T12:20:01.518Z,11.55
2022-11-01T12:22:32.066Z,11.57
2022-11-01T12:25:05.812Z,11.76
2022-11-01T12:27:36.184Z,11.95
2022-11-01T12:30:10.501Z,11.82
2022-11-01T12:32:47.802Z,12.06
2022-11-01T12:35:22.693Z,11.91
2022-11-01T12:38:04.056Z,11.95
2022-11-01T12:40:36.576Z,12.07
2022-11-01T12:43:13.068Z,12.35
2022-11-01T12:45:47.449Z,12.43
2022-11-01T12:48:19.908Z,12.44
2022-11-01T12:50:50.667Z,12.68
2022-11-01T12:53:21.782Z,12.77
2022-11-01T12:55:51.520Z,12.85
2022-11-01T12:58:21.261Z,12.90
2022-11-01T13:01:01.739Z,12.74
2022-11-01T13:03:40.278Z,12.70
2022-11-01T13:06:15.279Z,12.97
2022-11-01T13:08:49.328Z,12.95
2022-11-01T13:11:24.378Z,13.46
2022-11-01T13:13:59.451Z,13.58
2022-11-01T13:16:32.379Z,13.44
2022-11-01T13:19:05.268Z,13.35
2022-11-01T13:21:37.922Z,13.51
2022-11-01T13:24:14.521Z,14.28
2022-11-01T13:26:47.217Z,14.58
2022-11-01T13:29:19.098Z,14.37
2022-11-01T13:31:59.257Z,14.95
2022-11-01T13:34:43.232Z,15.38
2022-11-01T13:37:19.658Z,16.27
2022-11-01T13:39:56.881Z,15.94
2022-11-01T13:42:30.269Z,15.68
2022-11-01T13:45:14.926Z,15.45
2022-11-01T13:47:51.778Z,14.69
2022-11-01T13:50:45.738Z,13.99
2022-11-01T13:53:17.720Z,13.75
2022-11-01T13:55:53.258Z,13.46
2022-11-01T13:58:24.607Z,13.63
2022-11-01T14:00:54.521Z,13.53
2022-11-01T14:03:25.938Z,13.54
2022-11-01T14:06:25.989Z,13.84
2022-11-01T14:09:29.240Z,13.86
2022-11-01T14:11:59.212Z,13.61
2022-11-01T14:14:52.821Z,13.37
2022-11-01T14:18:04.599Z,12.99
2022-11-01T14:20:53.658Z,12.79
2022-11-01T14:23:52.623Z,12.77
2022-11-01T14:27:00.137Z,12.65
2022-11-01T14:29:28.348Z,12.64
2022-11-01T14:31:58.733Z,12.38
2022-11-01T14:34:35.927Z,12.25
2022-11-01T14:37:21.979Z,12.19
2022-11-01T14:39:56.961Z,12.11
2022-11-01T14:42:31.818Z,11.87
2022-11-01T14:45:00.739Z,11.81
2022-11-01T14:47:34.777Z,11.69
2022-11-01T14:50:07.572Z,11.57
2022-11-01T14:52:41.000Z,11.48
2022-11-01T14:55:15.939Z,11.39
2022-11-01T14:57:45.507Z,11.41
2022-11-01T15:00:28.676Z,11.33
2022-11-01T15:05:28.538Z,11.02
2022-11-01T15:07:59.327Z,10.99
2022-11-01T15:10:27.853Z,10.92
2022-11-01T15:12:59.508Z,10.86
2022-11-01T15:15:30.657Z,10.81
2022-11-01T15:18:02.470Z,10.71
2022-11-01T15:20:33.879Z,10.59
2022-11-01T15:23:04.366Z,10.46
2022-11-01T15:25:32.741Z,10.41
2022-11-01T15:28:00.922Z,10.27
2022-11-01T15:30:31.378Z,10.22
2022-11-01T15:35:58.259Z,10.12
2022-11-01T15:38:27.399Z,10.10
2022-11-01T15:40:55.674Z,10.08
2022-11-01T15:43:25.357Z,10.10
2022-11-01T15:45:55.358Z,10.08
2022-11-01T15:48:26.200Z,10.11
2022-11-01T15:50:58.999Z,10.14
2022-11-01T15:53:30.458Z,10.09
2022-11-01T15:56:01.848Z,10.10
2022-11-01T15:58:32.999Z,10.08
2022-11-01T16:01:03.480Z,10.04
2022-11-01T16:03:35.948Z,9.94
2022-11-01T16:06:14.109Z,9.88
2022-11-01T16:08:44.601Z,9.96
2022-11-01T16:11:17.978Z,9.91
2022-11-01T16:13:50.030Z,9.94
2022-11-01T16:16:18.202Z,9.94
2022-11-01T16:18:47.578Z,9.94
2022-11-01T16:21:38.398Z,9.93
2022-11-01T16:24:15.707Z,9.89
2022-11-01T16:26:54.729Z,9.84
2022-11-01T16:29:42.698Z,9.76
2022-11-01T16:32:19.858Z,9.67
2022-11-01T16:34:48.218Z,9.63
2022-11-01T16:37:25.211Z,9.55
2022-11-01T16:39:54.130Z,9.49
2022-11-01T16:42:23.081Z,9.45
2022-11-01T16:44:56.869Z,9.43
2022-11-01T16:47:25.120Z,9.38
2022-11-01T16:49:55.234Z,9.38
2022-11-01T16:52:25.048Z,9.42
2022-11-01T16:54:53.301Z,9.49
2022-11-01T16:57:25.557Z,9.56
2022-11-01T16:59:54.694Z,9.61
2022-11-01T17:02:25.062Z,9.68
2022-11-01T17:04:56.171Z,9.72
2022-11-01T17:07:26.083Z,9.69
2022-11-01T17:09:54.158Z,9.73
2022-11-01T17:12:22.380Z,9.74
2022-11-01T17:14:52.513Z,9.71
2022-11-01T17:17:24.916Z,9.75
2022-11-01T17:19:58.330Z,9.79
2022-11-01T17:22:32.898Z,9.79
2022-11-01T17:25:00.961Z,9.79
2022-11-01T17:27:29.416Z,9.83
2022-11-01T17:29:57.579Z,9.83
2022-11-01T17:32:25.869Z,9.82
2022-11-01T17:34:53.981Z,9.82
2022-11-01T17:37:22.379Z,9.84
2022-11-01T17:39:51.878Z,9.84
2022-11-01T17:42:20.018Z,9.80
2022-11-01T17:44:48.168Z,9.80
2022-11-01T17:47:16.642Z,9.80
2022-11-01T17:49:44.839Z,9.80
2022-11-01T17:52:12.995Z,9.75
2022-11-01T17:54:41.421Z,9.83
2022-11-01T17:57:10.976Z,9.82
2022-11-01T17:59:39.058Z,9.87
2022-11-01T18:02:07.453Z,9.82
2022-11-01T18:04:36.635Z,9.84
2022-11-01T18:07:05.418Z,9.84
2022-11-01T18:09:33.562Z,9.87
2022-11-01T18:12:05.633Z,9.89
2022-11-01T18:14:46.768Z,9.81
2022-11-01T18:17:26.699Z,9.86
2022-11-01T18:19:57.865Z,9.82
2022-11-01T18:22:33.152Z,9.87
2022-11-01T18:25:05.548Z,9.83
2022-11-01T18:27:35.918Z,9.83
2022-11-01T18:30:14.732Z,9.84
2022-11-01T18:32:47.419Z,9.88
2022-11-01T18:35:31.737Z,9.90
2022-11-01T18:38:26.251Z,9.94
2022-11-01T18:40:59.411Z,9.84
2022-11-01T18:43:28.539Z,9.80
2022-11-01T18:46:23.320Z,9.79
2022-11-01T18:48:47.964Z,9.79
2022-11-01T18:51:23.048Z,9.80
2022-11-01T18:53:54.721Z,9.81
2022-11-01T18:56:25.691Z,9.80
2022-11-01T18:58:54.558Z,9.82
2022-11-01T19:01:31.885Z,9.90
2022-11-01T19:04:03.019Z,9.87
2022-11-01T19:06:33.688Z,9.83
2022-11-01T19:09:04.688Z,9.88
2022-11-01T19:11:33.002Z,9.88
2022-11-01T19:14:02.387Z,9.88
2022-11-01T19:16:31.906Z,9.87
2022-11-01T19:19:01.209Z,9.82
2022-11-01T19:21:33.558Z,9.88
2022-11-01T19:24:10.116Z,9.84
2022-11-01T19:26:43.001Z,9.82
2022-11-01T19:29:17.309Z,9.78
2022-11-01T19:31:48.750Z,9.80
2022-11-01T19:34:21.518Z,9.79
2022-11-01T19:36:50.524Z,9.80
2022-11-01T19:39:23.446Z,9.77
2022-11-01T19:41:51.949Z,9.84
2022-11-01T19:44:21.548Z,9.88
2022-11-01T19:46:52.531Z,9.95
2022-11-01T19:49:23.720Z,9.91
2022-11-01T19:52:01.418Z,9.85
2022-11-01T19:54:31.054Z,9.82
2022-11-01T19:57:00.804Z,9.88
2022-11-01T19:59:29.081Z,9.91
2022-11-01T20:01:59.207Z,9.84
2022-11-01T20:04:29.850Z,9.85
2022-11-01T20:07:01.260Z,9.90
2022-11-01T20:09:30.688Z,9.89
2022-11-01T20:11:58.795Z,9.87
2022-11-01T20:14:27.767Z,9.90
2022-11-01T20:16:55.961Z,9.88
2022-11-01T20:19:25.488Z,9.93
2022-11-01T20:21:53.706Z,9.91
2022-11-01T20:24:21.837Z,9.84
2022-11-01T20:26:50.827Z,9.87
2022-11-01T20:29:18.946Z,9.88
2022-11-01T20:31:47.810Z,9.84
2022-11-01T20:34:15.979Z,9.88
2022-11-01T20:37:02.225Z,9.88
2022-11-01T20:39:33.899Z,9.83
2022-11-01T20:42:02.192Z,9.82
2022-11-01T20:44:30.299Z,9.88
2022-11-01T20:46:58.437Z,9.79
2022-11-01T20:49:27.520Z,9.82
2022-11-01T20:52:03.868Z,9.76
2022-11-01T20:54:41.958Z,9.74
2022-11-01T20:57:24.766Z,9.77
2022-11-01T20:59:55.922Z,9.75
2022-11-01T21:02:24.388Z,9.79
2022-11-01T21:04:56.435Z,9.79
2022-11-01T21:07:26.688Z,9.86
2022-11-01T21:09:54.918Z,9.78
2022-11-01T21:12:32.378Z,9.76
2022-11-01T21:15:10.740Z,9.77
2022-11-01T21:17:38.877Z,9.79
2022-11-01T21:20:19.597Z,9.83
2022-11-01T21:22:49.138Z,9.80
2022-11-01T21:25:21.868Z,9.78
2022-11-01T21:27:51.168Z,9.77
2022-11-01T21:30:21.707Z,9.75
2022-11-01T21:32:49.837Z,9.74
2022-11-01T21:35:41.888Z,9.67
2022-11-01T21:38:35.746Z,9.67
2022-11-01T21:41:11.659Z,9.73
2022-11-01T21:43:40.189Z,9.66
2022-11-01T21:46:15.761Z,9.67
2022-11-01T21:48:43.940Z,9.69
2022-11-01T21:51:12.033Z,9.69
2022-11-01T21:53:41.543Z,9.61
2022-11-01T21:56:09.918Z,9.67
2022-11-01T21:58:38.035Z,9.66
2022-11-01T22:01:06.459Z,9.66
2022-11-01T22:03:34.611Z,9.65
2022-11-01T22:06:02.799Z,9.62
2022-11-01T22:08:30.920Z,9.56
2022-11-01T22:11:00.487Z,9.49
2022-11-01T22:13:28.587Z,9.49
2022-11-01T22:15:56.739Z,9.48
2022-11-01T22:18:25.370Z,9.47
2022-11-01T22:20:53.618Z,9.51
2022-11-01T22:23:21.737Z,9.49
2022-11-01T22:25:49.889Z,9.46
2022-11-01T22:28:19.399Z,9.46
2022-11-01T22:30:47.578Z,9.41
2022-11-01T22:33:15.738Z,9.42
2022-11-01T22:35:43.878Z,9.43
2022-11-01T22:38:16.038Z,9.38
2022-11-01T22:40:44.362Z,9.41
2022-11-01T22:43:17.503Z,9.39
2022-11-01T22:45:47.102Z,9.33
2022-11-01T22:48:16.978Z,9.38
2022-11-01T22:50:45.847Z,9.37
2022-11-01T22:53:15.430Z,9.38
2022-11-01T22:55:44.798Z,9.37
2022-11-01T22:58:37.180Z,9.35
2022-11-01T23:01:23.522Z,9.30
2022-11-01T23:03:55.979Z,9.33
2022-11-01T23:06:32.238Z,9.32
2022-11-01T23:09:08.577Z,9.38
2022-11-01T23:11:53.857Z,9.35
2022-11-01T23:14:40.269Z,9.37
2022-11-01T23:17:21.837Z,9.34
2022-11-01T23:19:54.658Z,9.31
2022-11-01T23:22:24.741Z,9.32
2022-11-01T23:24:53.878Z,9.30
2022-11-01T23:27:23.466Z,9.32
2022-11-01T23:29:53.589Z,9.33
2022-11-01T23:32:23.181Z,9.35
2022-11-01T23:34:51.728Z,9.36
2022-11-01T23:37:22.578Z,9.37
2022-11-01T23:39:50.732Z,9.39
2022-11-01T23:42:22.399Z,9.42
2022-11-01T23:44:52.638Z,9.41
2022-11-01T23:47:28.118Z,9.34
2022-11-01T23:50:00.905Z,9.33
2022-11-01T23:52:35.183Z,9.37
2022-11-01T23:55:04.041Z,9.37
2022-11-01T23:57:32.398Z,9.34
